Wetterstation:     Jahr:     Auswahl:
Download: tageswerte-erbach-2021.csv
 
 
Datum
Temp. 2 m
Mittel
[⁰C]
Temp. 2 m
Maximum
[⁰C]
Temp. 2 m
Minimum
[⁰C]
rel. Feuchte
Mittel
[%]
Wind
Mittel
[m/s]
Regen
Summe
[mm]
Strahlung
Summe
[Wh/m²]
Bogrebe
Minimum
[⁰C]
01.01.2021 2,2 3,8 0,9 92,9 0,5 0,4 494,9 0,9
02.01.2021 2,0 3,5 0,4 84,3 0,9 0,0 505,3 0,1
03.01.2021 2,1 3,0 0,9 83,2 1,9 0,1 197,4 0,3
04.01.2021 1,8 2,7 0,6 90,3 0,8 1,2 140,8 0,3
05.01.2021 2,5 3,4 1,6 86,6 0,8 0,3 260,7 1,3
06.01.2021 2,7 4,5 1,5 86,4 0,7 0,7 465,6 1,3
07.01.2021 2,1 3,5 0,9 83,8 0,7 0,2 426,9 0,5
08.01.2021 2,1 3,6 0,7 85,8 0,9 0,3 673,5 0,1
09.01.2021 1,3 4,3 -2,0 77,4 0,9 0,0 1135,2 -2,8
10.01.2021 -1,1 6,1 -4,3 84,6 0,4 0,0 1491,9 -5,2
11.01.2021 -1,2 4,8 -6,2 79,4 0,6 0,0 1397,3 -6,7
12.01.2021 2,6 4,2 1,4 89,5 1,1 5,9 312,3 0,7
13.01.2021 1,9 6,1 -1,3 83,0 1,1 0,0 973,8 -1,9
14.01.2021 2,0 3,7 -0,3 75,0 1,2 0,1 598,6 -0,6
15.01.2021 0,9 3,5 -1,9 73,1 1,1 0,0 920,8 -2,6
16.01.2021 -0,0 1,2 -2,2 70,9 0,8 0,0 607,3 -2,3
17.01.2021 -0,7 1,5 -2,3 92,4 0,3 2,1 225,9 -2,5
18.01.2021 3,3 6,3 0,8 85,8 1,0 1,6 796,1 0,5
19.01.2021 3,7 5,1 0,1 82,1 1,2 0,6 259,0 -0,6
20.01.2021 2,9 7,0 -1,4 82,8 0,9 0,0 727,6 -2,1
21.01.2021 8,4 11,5 4,2 74,9 1,4 2,4 795,0 3,9
22.01.2021 6,2 11,1 2,8 85,7 1,0 3,6 656,7 2,5
23.01.2021 3,2 5,7 0,1 91,0 0,8 1,0 352,7 -0,4
24.01.2021 1,8 3,9 -0,9 87,2 1,3 5,5 660,4 -1,4
25.01.2021 1,1 3,2 -0,2 88,2 0,8 1,2 558,1 -0,5
26.01.2021 2,5 4,9 -0,2 78,9 1,4 0,1 343,7 -0,6
27.01.2021 1,3 2,4 0,1 92,8 0,9 2,8 352,1 -0,2
28.01.2021 5,6 11,9 2,1 92,0 1,0 11,1 393,0 2,0
29.01.2021 8,6 11,6 6,8 83,4 1,5 6,2 838,2 6,6
30.01.2021 3,8 7,9 0,5 91,2 1,5 6,4 419,3 0,5
31.01.2021 1,1 1,8 0,5 84,2 2,1 1,2 521,9 0,4
01.02.2021 3,0 4,5 1,3 96,0 0,9 3,4 445,3 1,2
02.02.2021 5,7 7,4 4,5 95,4 0,4 3,7 521,6 4,2
03.02.2021 8,2 11,8 4,9 95,9 0,9 21,2 501,2 4,1
04.02.2021 7,7 12,4 3,5 78,3 0,8 0,0 1711,0 2,6
05.02.2021 6,1 7,5 4,2 92,7 0,4 4,5 561,0 3,6
06.02.2021 5,6 7,0 3,5 93,7 2,0 10,5 150,5 3,5
07.02.2021 2,5 3,6 -0,2 93,7 1,9 5,0 210,9 -0,3
08.02.2021 -2,9 -0,3 -5,0 84,3 1,4 0,0 658,4 -5,1
09.02.2021 -5,9 -3,9 -8,7 69,8 1,5 0,0 1137,1 -8,8
10.02.2021 -6,5 -2,9 -9,7 68,5 1,7 0,0 2266,2 -9,8
11.02.2021 -2,7 1,8 -6,3 71,9 0,8 0,0 2286,9 -6,9
12.02.2021 -4,2 -0,5 -7,1 65,5 2,4 0,0 2513,4 -7,5
13.02.2021 -3,9 1,0 -7,2 61,4 2,2 0,0 2762,8 -7,4
14.02.2021 -2,2 4,0 -7,1 61,9 1,8 0,0 2788,0 -7,9
15.02.2021 -1,2 0,5 -4,5 72,0 0,8 1,2 684,9 -5,2
16.02.2021 3,7 9,4 0,4 87,2 0,6 1,5 1799,9 0,2
17.02.2021 6,2 13,2 1,2 86,7 0,7 0,0 1537,1 0,7
18.02.2021 3,5 8,4 -0,8 90,2 0,6 0,1 1320,0 -1,0
19.02.2021 5,7 11,9 -0,4 83,8 0,5 0,0 2530,5 -1,0
20.02.2021 7,5 17,1 1,1 83,3 0,6 0,0 2694,0 0,5
21.02.2021 7,1 17,9 -0,1 79,8 0,5 0,0 3030,7 -0,7
22.02.2021 6,0 12,2 0,4 84,2 0,6 0,0 2230,7 -0,3
23.02.2021 9,9 18,3 3,8 79,9 0,5 0,1 2777,2 3,3
24.02.2021 9,8 19,3 2,9 83,0 0,4 0,0 2842,3 2,3
25.02.2021 9,3 20,5 2,4 75,1 0,4 0,0 3125,1 1,8
26.02.2021 5,8 9,7 2,2 86,0 0,9 0,3 474,7 1,5
27.02.2021 5,5 11,5 0,6 76,4 1,0 0,0 3371,8 -0,1
28.02.2021 5,8 11,2 0,6 68,1 1,5 0,0 3639,5 -0,3
01.03.2021 5,2 13,1 -2,1 74,8 1,0 0,1 3673,3 -2,9
02.03.2021 6,6 15,9 -0,1 75,3 0,6 0,0 3629,9 -0,8
03.03.2021 6,8 15,7 0,4 78,9 0,4 0,0 2921,3 -0,2
04.03.2021 8,0 14,7 3,8 78,2 1,1 0,0 2060,2 3,1
05.03.2021 4,2 7,8 -1,0 64,9 1,5 0,0 1847,9 -1,9
06.03.2021 1,9 8,3 -3,6 58,3 1,1 0,0 4095,6 -4,6
07.03.2021 3,0 10,9 -4,6 59,0 0,8 0,0 4264,5 -5,7
08.03.2021 3,0 8,5 -3,5 69,8 0,8 0,0 2825,1 -4,2
09.03.2021 4,0 8,9 0,2 80,4 0,9 0,0 1934,7 -0,2
10.03.2021 7,0 11,1 2,3 74,9 0,8 0,0 1628,4 1,7
11.03.2021 9,5 15,6 6,6 75,7 1,8 2,6 1931,3 6,3
12.03.2021 7,7 11,2 4,6 69,1 2,0 2,0 2700,1 4,3
13.03.2021 6,9 9,8 4,3 80,6 1,9 3,1 1708,4 3,9
14.03.2021 5,0 8,9 2,1 80,1 1,3 3,0 1796,0 1,6
15.03.2021 5,8 10,0 3,2 79,9 2,5 4,2 3008,3 2,9
16.03.2021 6,2 8,8 3,8 73,7 1,7 0,3 2486,5 3,4
17.03.2021 4,6 8,1 0,2 74,0 1,2 1,4 2022,7 -0,6
18.03.2021 3,4 9,2 -2,2 72,8 1,2 1,9 3666,8 -3,0
19.03.2021 3,1 7,3 0,2 75,6 1,8 0,8 3218,7 -0,9
20.03.2021 4,2 8,4 -1,0 54,4 1,1 0,0 4857,7 -1,7
21.03.2021 6,3 9,5 3,7 66,0 1,8 0,0 2604,2 2,8
22.03.2021 5,9 8,1 2,9 70,8 1,3 0,0 1376,3 2,0
23.03.2021 6,6 11,4 1,1 68,6 0,9 0,0 2288,7 0,2
24.03.2021 7,0 16,6 -1,4 72,6 0,6 0,0 4974,7 -2,0
25.03.2021 8,8 17,5 0,6 72,2 0,6 0,0 3889,9 0,0
26.03.2021 11,3 17,6 4,8 66,3 0,7 0,0 4233,6 3,9
27.03.2021 7,1 10,3 2,9 71,8 2,0 1,0 2847,2 2,5
28.03.2021 9,2 16,4 1,7 67,5 0,9 0,0 4282,5 1,1
29.03.2021 12,0 22,9 2,6 58,3 0,7 0,0 5250,7 1,8
30.03.2021 13,0 24,6 2,5 55,7 0,5 0,0 5546,3 1,7
31.03.2021 14,2 26,3 3,6 58,9 0,5 0,0 5395,5 2,7
01.04.2021 15,3 24,8 7,1 58,9 1,6 0,0 4851,8 6,3
02.04.2021 8,7 13,9 3,8 59,6 2,0 0,0 3989,8 3,1
03.04.2021 8,6 13,7 3,6 51,5 1,6 0,0 5342,3 2,3
04.04.2021 6,9 12,2 1,0 64,1 1,1 0,0 5408,4 0,0
05.04.2021 3,5 8,0 0,4 74,2 2,5 0,9 1771,5 0,1
06.04.2021 3,0 6,7 0,3 64,7 3,7 0,2 3217,6 0,1
07.04.2021 2,8 5,6 0,3 69,1 2,2 0,7 1766,8 0,1
08.04.2021 4,9 11,0 -0,3 57,4 1,3 0,0 4907,3 -0,9
09.04.2021 8,6 17,6 -1,6 57,9 0,8 0,2 5137,0 -2,5
10.04.2021 9,6 11,1 8,4 87,4 0,5 3,4 956,1 8,1
11.04.2021 8,0 15,4 4,5 84,7 1,3 1,3 1848,1 4,2
12.04.2021 4,9 10,0 0,1 70,7 1,4 0,0 4196,1 -0,6
13.04.2021 4,3 9,8 -1,1 66,6 1,2 0,0 4248,2 -1,8
14.04.2021 5,0 10,4 -0,2 62,5 1,2 0,0 4028,1 -0,9
15.04.2021 5,2 10,6 -1,2 62,5 1,1 0,0 4132,0 -2,3
16.04.2021 6,2 9,3 1,9 60,5 1,3 0,0 2961,9 1,2
17.04.2021 7,9 12,6 2,0 59,1 1,4 0,0 4718,7 1,2
18.04.2021 8,8 12,3 7,3 74,8 0,5 2,3 1673,1 6,9
19.04.2021 10,1 15,4 5,3 77,2 0,7 0,8 3336,3 4,7
20.04.2021 10,5 19,6 2,2 69,4 0,6 0,0 6466,2 1,7
21.04.2021 11,9 20,0 3,1 65,3 1,0 2,6 5045,4 2,5
22.04.2021 10,0 15,3 5,0 53,1 1,5 0,0 6839,2 4,6
23.04.2021 10,3 18,4 0,8 52,8 1,0 0,0 7177,0 0,1
24.04.2021 11,4 18,0 2,0 55,1 1,2 0,0 6923,2 1,0
25.04.2021 10,8 17,0 5,4 46,6 1,7 0,0 7309,4 5,0
26.04.2021 10,1 16,7 3,1 40,3 1,8 0,0 7479,9 2,1
27.04.2021 11,2 18,5 4,5 38,7 1,6 0,0 7289,3 3,9
28.04.2021 12,3 22,2 2,1 61,2 0,9 7,4 6248,2 1,2
29.04.2021 11,6 17,1 5,5 70,9 1,8 3,2 5443,4 4,9
30.04.2021 8,3 12,8 1,7 68,2 0,7 0,0 3445,0 1,1
01.05.2021 10,2 14,9 2,7 60,3 1,0 0,0 4019,1 2,2
02.05.2021 9,3 12,7 3,5 54,4 1,8 0,0 4734,5 2,9
03.05.2021 9,1 15,7 1,1 59,6 0,9 0,0 5424,3 0,4
04.05.2021 9,8 14,1 5,9 69,9 1,5 0,0 1708,9 5,2
05.05.2021 7,8 12,4 4,3 71,9 1,9 0,8 4138,1 3,9
06.05.2021 7,1 12,2 2,5 82,3 0,8 4,6 2614,4 1,9
07.05.2021 8,1 12,7 3,2 67,6 1,7 1,2 5451,3 2,6
08.05.2021 10,8 18,5 0,0 61,6 0,7 0,0 5766,2 -0,5
09.05.2021 18,1 29,2 6,3 58,1 1,0 0,0 6710,0 5,5
10.05.2021 15,7 20,4 12,9 81,0 0,6 6,2 1226,7 12,8
11.05.2021 13,5 15,2 11,9 93,8 0,4 3,7 1595,7 11,6
12.05.2021 14,3 20,3 8,7 74,7 0,9 0,0 5397,9 8,2
13.05.2021 13,1 21,1 6,2 73,9 0,7 0,0 5414,0 5,8
14.05.2021 13,4 19,7 7,2 68,7 0,9 0,3 5777,5 6,7
15.05.2021 12,3 15,8 9,0 75,6 0,8 2,3 3010,9 8,9
16.05.2021 12,2 19,3 7,9 80,4 0,8 8,5 4736,2 7,4
17.05.2021 11,7 16,9 8,8 84,8 1,0 5,3 3518,9 8,4
18.05.2021 11,7 16,1 7,9 78,9 1,3 1,7 4965,2 7,4
19.05.2021 12,5 18,0 6,4 71,9 1,3 0,1 6352,6 6,1
20.05.2021 13,7 19,1 8,2 67,8 0,6 0,0 4998,8 7,6
21.05.2021 14,0 18,2 9,1 65,6 1,1 4,7 4870,9 8,7
22.05.2021 12,3 17,4 8,5 72,6 1,2 1,2 4219,0 8,2
23.05.2021 12,5 17,9 7,6 68,3 1,1 0,0 5059,5 6,9
24.05.2021 12,1 21,1 4,8 73,9 0,9 0,7 4843,1 4,3
25.05.2021 10,5 15,0 8,7 79,3 1,4 2,9 2838,4 8,6
26.05.2021 10,7 14,4 6,9 85,8 0,9 4,2 2866,4 6,4
27.05.2021 11,7 15,2 6,4 79,1 1,5 0,6 3573,4 6,0
28.05.2021 14,2 20,0 8,4 65,6 0,7 0,0 5815,2 7,9
29.05.2021 15,5 21,8 6,6 60,2 0,9 0,0 6725,2 6,0
30.05.2021 16,1 22,2 7,6 58,0 1,4 0,0 8077,6 6,6
31.05.2021 17,2 24,2 7,8 53,5 0,9 0,0 8500,5 6,6
01.06.2021 18,5 26,0 8,4 51,7 1,1 0,0 8528,7 7,4
02.06.2021 20,4 28,9 9,0 54,4 0,6 0,0 8276,5 8,1
03.06.2021 21,1 29,6 13,9 69,0 0,6 0,0 6247,3 13,0
04.06.2021 21,2 30,3 15,7 75,9 0,6 9,0 5598,1 15,2
05.06.2021 19,0 25,7 14,4 85,0 0,7 1,5 4200,1 14,1
06.06.2021 17,5 19,7 15,4 80,1 1,7 0,0 4381,9 15,2
07.06.2021 18,0 21,1 16,3 80,9 0,7 2,8 2286,7 16,0
08.06.2021 20,2 25,9 15,0 74,2 0,7 0,0 5174,2 14,4
09.06.2021 21,7 27,8 14,6 67,8 0,7 0,0 7285,5 13,9
10.06.2021 22,6 29,4 15,3 59,2 0,8 0,0 7843,7 13,9
11.06.2021 22,8 29,9 13,2 61,0 0,6 0,0 7467,9 12,3
12.06.2021 21,6 27,1 15,4 62,4 1,6 0,0 6049,0 13,8
13.06.2021 19,3 26,4 11,2 54,9 0,8 0,0 8650,1 10,5
14.06.2021 20,9 30,1 10,4 56,7 0,6 0,0 8618,0 8,7
15.06.2021 23,2 31,7 13,0 60,2 0,6 0,0 7059,2 11,5
16.06.2021 24,9 33,5 16,1 62,7 0,6 0,0 7630,1 14,8
17.06.2021 26,8 35,0 16,8 60,3 0,5 0,0 7697,8 15,0
18.06.2021 27,7 35,5 18,3 62,0 0,5 0,0 6618,2 16,8
19.06.2021 27,6 33,9 19,3 58,2 0,6 0,0 7756,3 17,6
20.06.2021 25,8 31,1 19,1 62,4 0,8 9,6 6361,8 19,0
21.06.2021 21,4 28,5 17,2 72,9 1,1 0,0 6292,3 17,0
22.06.2021 17,1 19,4 14,5 81,1 0,8 2,1 2543,7 14,0
23.06.2021 20,9 27,2 14,6 70,8 0,9 0,0 7030,0 14,0
24.06.2021 17,9 19,9 17,0 87,8 0,6 10,2 1688,0 16,7
25.06.2021 18,8 23,4 13,4 75,5 0,6 1,2 4536,2 12,4
26.06.2021 20,6 27,4 12,2 66,4 0,4 0,0 7609,1 11,2
27.06.2021 22,4 28,8 15,8 67,7 0,7 0,0 5354,8 14,5
28.06.2021 23,9 31,2 16,1 66,2 0,5 0,0 6586,2 15,0
29.06.2021 19,9 28,6 14,5 81,0 0,6 21,3 4224,8 13,9
30.06.2021 16,8 21,9 13,0 83,4 0,8 1,6 3574,9 12,2
01.07.2021 16,2 18,3 14,5 77,3 1,3 0,0 2267,6 14,3
02.07.2021 19,3 25,3 12,5 68,2 0,7 0,1 6547,2 11,8
03.07.2021 21,3 29,0 12,0 67,5 0,4 0,0 7487,4 11,0
04.07.2021 19,7 26,0 15,0 79,8 0,4 3,5 3785,2 14,2
05.07.2021 18,6 23,2 13,8 86,9 0,5 2,5 3175,6 13,2
06.07.2021 18,2 21,5 15,0 86,7 0,4 8,3 2034,4 13,9
07.07.2021 19,9 26,6 13,9 72,5 0,4 0,0 6389,4 13,4
08.07.2021 18,4 25,0 13,2 80,2 0,7 0,2 3231,8 12,5
09.07.2021 19,1 24,4 14,1 77,6 0,8 1,1 3440,1 13,2
10.07.2021 19,9 27,7 12,4 75,1 0,5 3,9 5942,8 11,4
11.07.2021 19,5 26,2 14,9 78,8 0,6 0,1 4786,5 14,0
12.07.2021 20,5 26,6 13,0 75,3 0,7 0,7 4763,6 12,0
13.07.2021 18,8 23,5 16,1 93,8 0,4 23,6 1622,5 15,9
14.07.2021 17,1 18,6 15,4 90,7 0,4 3,7 1009,4 15,0
15.07.2021 19,8 26,8 16,0 80,7 0,5 2,6 5494,9 15,7
16.07.2021 19,4 23,2 15,8 84,2 1,3 3,6 5025,1 15,3
17.07.2021 21,2 27,0 15,8 76,2 1,0 0,0 5840,1 15,0
18.07.2021 22,7 28,9 13,5 64,4 1,0 0,0 7952,2 12,6
19.07.2021 21,2 26,6 14,6 66,7 1,0 0,0 7149,4 13,7
20.07.2021 19,5 26,3 11,5 67,2 0,5 0,0 7134,3 10,5
21.07.2021 19,8 27,9 11,0 63,9 0,6 0,0 7747,5 9,7
22.07.2021 20,4 28,8 12,0 66,6 0,6 0,0 6920,4 10,5
23.07.2021 21,4 29,6 11,9 65,5 0,5 0,0 7630,1 10,8
24.07.2021 19,9 25,2 14,2 79,7 0,5 4,4 3993,2 12,8
25.07.2021 20,9 28,7 15,7 78,6 0,5 0,7 5514,7 14,8
26.07.2021 21,4 28,1 14,3 73,0 0,6 0,0 6098,6 13,3
27.07.2021 19,9 27,5 14,2 77,0 0,6 1,5 4426,5 13,3
28.07.2021 19,3 25,7 14,0 78,3 0,7 0,1 4066,0 13,3
29.07.2021 19,3 24,2 13,8 67,9 1,0 0,0 6577,1 12,3
30.07.2021 20,3 27,8 10,7 65,9 0,7 0,0 7255,8 9,7
31.07.2021 19,0 24,0 11,3 64,9 1,0 0,0 5068,5 9,9
01.08.2021 19,0 25,4 13,8 67,3 1,1 0,0 5552,8 12,6
02.08.2021 17,3 23,9 12,2 78,1 0,9 1,4 5120,3 11,7
03.08.2021 16,5 23,5 12,5 85,1 0,5 2,7 3195,1 11,8
04.08.2021 17,7 24,4 12,7 79,5 0,4 0,8 4807,2 12,1
05.08.2021 19,6 25,9 12,5 74,5 0,4 0,1 5438,4 11,3
06.08.2021 18,2 23,9 13,1 80,2 0,7 3,7 3866,7 12,3
07.08.2021 17,4 23,0 12,0 83,7 0,4 1,4 2794,8 11,1
08.08.2021 16,6 21,7 11,2 80,4 0,7 1,2 4154,2 9,9
09.08.2021 16,9 24,2 9,9 75,7 0,5 0,0 4407,7 9,1
10.08.2021 18,7 26,9 11,3 74,2 0,6 0,0 4735,4 10,3
11.08.2021 21,1 30,2 12,6 71,3 0,4 0,0 6521,8 11,5
12.08.2021 21,9 30,4 13,7 72,1 0,4 0,0 5402,6 12,2
13.08.2021 23,3 32,0 15,8 72,0 0,6 0,0 4937,0 14,5
14.08.2021 23,0 32,3 13,8 67,3 0,6 0,0 6646,9 12,7
15.08.2021 22,3 31,6 13,3 64,9 0,4 0,0 6194,6 11,6
16.08.2021 18,2 23,8 12,1 71,8 1,7 0,5 3119,6 11,2
17.08.2021 15,0 20,9 10,4 77,2 1,2 2,5 3148,7 9,6
18.08.2021 18,3 23,8 14,1 76,8 1,0 0,0 3379,4 13,8
19.08.2021 19,1 23,3 16,3 79,2 0,8 0,2 2586,9 15,6
20.08.2021 19,6 26,9 12,7 72,7 0,6 0,1 5313,0 11,6
21.08.2021 21,0 29,1 13,2 71,1 0,4 2,8 5567,1 11,9
22.08.2021 19,3 24,8 15,3 81,8 0,9 1,8 4079,3 14,6
23.08.2021 18,2 25,4 12,9 79,2 0,7 0,1 3932,5 11,3
24.08.2021 17,0 22,0 11,7 68,2 1,1 0,0 4623,8 9,3
25.08.2021 18,4 25,2 10,5 64,9 0,7 0,0 6347,5 8,8
26.08.2021 17,5 20,8 14,1 67,1 1,6 0,0 4358,9 13,4
27.08.2021 15,0 19,8 10,1 78,5 1,1 0,8 2304,3 8,7
28.08.2021 15,8 20,7 11,8 80,7 0,5 0,7 2571,9 11,0
29.08.2021 15,9 17,4 14,3 84,9 1,0 0,2 1156,5 13,9
30.08.2021 18,0 21,5 14,8 74,8 1,0 0,1 2090,2 13,9
31.08.2021 16,8 22,4 11,4 75,7 0,8 0,0 3940,1 10,0
01.09.2021 16,6 23,9 10,3 73,8 0,8 0,0 4500,0 8,9
02.09.2021 17,1 24,7 8,4 72,8 0,9 0,0 5740,1 6,7
03.09.2021 18,4 27,3 9,5 69,4 0,6 0,0 5878,2 7,5
04.09.2021 18,7 29,2 9,9 69,8 0,5 0,0 5328,6 8,2
05.09.2021 19,6 29,7 11,4 70,4 0,4 0,0 5341,3 9,7
06.09.2021 20,5 30,3 12,1 69,7 0,4 0,0 5193,5 10,8
07.09.2021 19,4 29,1 12,5 70,6 0,4 0,0 4519,6 10,9
08.09.2021 19,8 27,9 11,6 68,8 0,9 0,0 5357,9 10,0
09.09.2021 20,3 28,3 12,4 76,0 0,4 0,0 4031,7 10,9
10.09.2021 19,7 23,9 16,6 86,2 0,4 7,6 2356,5 15,6
11.09.2021 18,9 24,4 14,9 85,3 0,4 4,1 3171,0 13,7
12.09.2021 18,0 26,4 11,7 74,5 0,6 0,0 5010,9 11,0
13.09.2021 17,4 26,6 10,1 75,8 0,5 0,0 4622,9 8,7
14.09.2021 18,9 26,5 11,6 79,6 0,4 0,0 3549,3 10,2
15.09.2021 19,1 23,4 16,2 91,5 0,4 6,3 1636,8 15,1
16.09.2021 17,2 21,3 12,5 76,6 0,8 0,0 2521,5 11,6
17.09.2021 15,3 23,0 10,3 83,4 0,3 0,0 2602,8 8,9
18.09.2021 16,3 25,1 9,5 78,2 0,6 0,0 4257,1 8,6
19.09.2021 15,0 20,5 10,4 77,4 1,1 0,0 3874,0 8,7
20.09.2021 14,4 16,8 12,8 70,8 1,0 0,0 1786,0 12,6
21.09.2021 14,1 19,7 8,1 63,5 0,8 0,0 4294,8 6,5
22.09.2021 12,9 22,8 6,0 77,8 0,4 0,0 4136,6 4,6
23.09.2021 15,1 26,6 5,9 73,7 0,8 0,0 4631,3 4,0
24.09.2021 16,2 23,6 10,5 77,0 0,7 0,0 2842,9 9,6
25.09.2021 16,5 26,2 9,0 76,7 0,4 0,2 4368,3 7,7
26.09.2021 15,9 19,9 10,9 92,4 0,2 6,7 1309,1 9,8
27.09.2021 16,8 21,3 13,6 89,4 0,5 1,9 1594,6 13,4
28.09.2021 13,6 20,5 9,2 80,8 0,4 0,0 3004,4 7,9
29.09.2021 11,9 17,4 7,2 82,1 0,9 1,7 2293,9 6,3
30.09.2021 10,8 18,3 4,5 77,6 0,6 0,0 3160,9 3,1
01.10.2021 12,1 21,3 4,9 76,3 0,3 0,0 3921,5 3,6
02.10.2021 15,8 22,7 10,4 74,9 0,4 0,0 2361,5 9,7
03.10.2021 17,7 21,6 13,5 73,4 0,9 0,1 746,4 13,1
04.10.2021 13,9 18,4 11,5 82,6 0,4 0,0 1732,6 10,8
05.10.2021 13,4 20,2 9,8 86,7 0,5 4,0 1710,7 9,4
06.10.2021 11,9 14,9 9,3 83,7 0,8 1,3 1333,1 8,7
07.10.2021 11,9 18,6 6,8 86,4 0,5 0,9 2206,4 5,3
08.10.2021 11,9 18,9 6,1 82,2 0,9 0,1 2711,6 5,1
09.10.2021 11,0 18,0 4,8 75,6 0,9 0,0 3731,7 3,0
10.10.2021 8,4 17,0 2,9 80,9 0,3 0,0 3077,9 1,7
11.10.2021 8,2 16,0 2,6 86,9 0,6 0,1 1655,9 1,5
12.10.2021 10,0 14,3 5,8 89,8 0,8 4,8 1093,4 4,4
13.10.2021 8,9 13,3 4,5 83,9 0,7 0,1 1983,7 3,2
14.10.2021 10,7 16,9 6,1 84,0 0,6 0,0 1802,3 4,6
15.10.2021 9,0 16,7 4,8 87,6 0,5 0,0 1716,0 3,1
16.10.2021 8,1 16,4 3,5 84,6 0,3 0,1 2731,4 2,0
17.10.2021 8,7 16,6 4,7 83,1 0,3 0,0 2151,5 3,1
18.10.2021 7,0 11,7 3,4 93,4 0,4 0,1 935,0 2,2
19.10.2021 8,7 12,9 5,2 96,8 0,4 9,3 812,8 4,4
20.10.2021 12,3 18,8 6,2 93,0 0,5 0,1 953,4 5,5
21.10.2021 12,1 15,9 5,1 75,1 1,9 3,0 1978,6 4,5
22.10.2021 8,2 13,1 2,1 78,2 1,4 0,0 2467,9 1,6
23.10.2021 7,5 13,3 1,8 87,1 0,4 0,0 1451,7 0,4
24.10.2021 5,3 14,7 -0,2 85,4 0,5 0,1 2737,6 -1,1
25.10.2021 4,6 9,5 0,9 95,3 0,3 0,2 1338,4 0,8
26.10.2021 10,3 18,5 5,4 85,9 0,4 0,0 1513,9 3,9
27.10.2021 10,4 18,5 4,2 86,3 0,3 0,0 1996,9 3,1
28.10.2021 6,9 8,4 4,9 97,1 0,4 0,2 459,3 3,6
29.10.2021 7,2 9,9 4,3 93,9 0,6 0,0 835,7 3,2
30.10.2021 6,5 8,6 3,8 96,6 0,6 1,4 501,8 3,3
31.10.2021 11,8 16,1 6,0 93,3 0,6 1,0 1133,9 5,3
01.11.2021 10,5 15,5 4,0 87,4 0,6 2,0 1101,9 3,3
02.11.2021 6,7 8,8 4,3 96,8 0,4 6,9 682,2 3,7
03.11.2021 7,1 8,9 4,2 97,0 0,6 11,2 248,8 3,7
04.11.2021 7,4 9,3 6,3 87,9 1,0 0,6 625,3 6,0
05.11.2021 7,6 12,6 4,6 85,5 0,6 0,0 1176,5 3,8
06.11.2021 6,6 14,3 3,4 91,6 0,6 0,0 1790,1 2,4
07.11.2021 6,5 9,2 4,1 90,8 0,9 0,1 483,0 2,6
08.11.2021 6,7 13,3 2,1 87,3 0,4 0,0 1387,4 0,6
09.11.2021 6,3 12,5 1,8 83,2 0,6 0,0 1888,8 0,6
10.11.2021 2,7 8,5 0,1 93,3 0,4 0,1 1222,0 -0,5
11.11.2021 1,8 3,6 0,0 97,8 0,6 0,0 658,0 -0,1
12.11.2021 2,1 2,5 1,7 98,1 0,4 0,1 335,6 1,7
13.11.2021 4,0 6,5 1,8 96,5 0,4 5,7 354,7 1,7
14.11.2021 8,2 10,4 6,3 91,2 0,9 0,0 660,7 5,0
15.11.2021 8,3 8,9 7,7 80,9 1,4 0,0 242,8 7,4
16.11.2021 6,7 7,5 5,5 87,6 0,4 0,0 192,8 5,2
17.11.2021 6,6 8,9 4,8 87,9 0,8 0,3 677,3 3,5
18.11.2021 5,6 11,7 1,7 90,8 0,5 0,0 1261,5 0,6
19.11.2021 8,7 10,9 5,4 87,8 0,7 0,0 677,8 5,1
20.11.2021 8,3 11,4 3,8 88,2 0,4 0,0 695,1 2,7
21.11.2021 6,6 8,1 5,8 91,8 0,4 0,3 459,7 5,6
22.11.2021 5,2 8,4 -0,5 77,5 1,5 0,0 821,6 -2,1
23.11.2021 2,8 10,4 -3,0 80,8 0,3 0,0 1434,2 -4,4
24.11.2021 4,4 6,7 1,5 83,7 0,7 0,0 633,1 0,8
25.11.2021 2,8 4,8 0,9 80,3 0,4 0,0 411,5 0,3
26.11.2021 2,7 4,8 -0,1 86,4 0,7 1,6 355,3 -0,7
27.11.2021 3,3 7,9 0,6 86,2 0,6 1,1 1042,3 -0,2
28.11.2021 2,6 3,6 1,8 90,1 0,4 0,3 279,0 1,5
29.11.2021 2,7 4,8 0,4 84,8 1,1 0,9 585,2 -0,4
30.11.2021 4,7 7,1 2,5 88,7 1,4 7,6 205,0 2,2
01.12.2021 6,7 8,8 4,9 87,1 1,5 2,2 290,5 4,3
02.12.2021 3,8 6,2 1,2 84,9 1,1 1,5 842,5 0,7
03.12.2021 1,3 3,8 -2,3 84,2 0,9 0,0 570,8 -3,2
04.12.2021 2,7 5,6 0,8 93,1 0,8 4,8 238,5 0,7
05.12.2021 3,5 7,6 1,0 87,8 0,5 0,1 680,6 0,1
06.12.2021 2,6 7,6 -0,4 88,5 0,6 0,4 985,5 -1,0
07.12.2021 4,2 8,7 1,8 81,6 1,0 2,5 980,1 1,3
08.12.2021 3,4 5,1 1,9 90,9 0,8 1,0 407,8 1,6